MMTP/TAP METAR and TAF weather

Enter ICAO airport designator
Station Type Date Time Source
MMTP METAR 2023/02/01 10:40 UTC NOAA

MMTP 011040Z 00000KT 10SM SKC 23/23 A2989


Station Type Date Time Source
MMTP Decoded METAR 2023/02/01 10:40 UTC NOAA

Tapachula , Mexico (MMTP) 14-47N 092-23W
Feb 01, 2023 - 05:40 AM EST / 2023.02.01 1040 UTC
Wind: Calm:0
Visibility: 10 mile(s):0
Sky conditions: clear
Temperature: 73 F (23 C)
Dew Point: 73 F (23 C)
Relative Humidity: 100%
Pressure (altimeter): 29.89 in. Hg (1012 hPa)
ob: MMTP 011040Z 00000KT 10SM SKC 23/23 A2989
cycle: 10

Station Type Date Time Source
MMTP TAF 2023/02/01 12:04 UTC NOAA

TAF MMTP 011102Z 0112/0212 00000KT P6SM SKC
FM011800 24010KT P6SM SCT080
FM020300 00000KT P6SM SCT030
BECMG 0209/0210 5SM HZ

Example: see airport list